sensor_id;sensor_type;location;lat;lon;timestamp;pressure;altitude;pressure_sealevel;temperature;humidity
40245;BME280;25963;42.694;23.600;2023-04-26T00:00:19;94248.41;;;11.99;100.00
40245;BME280;25963;42.694;23.600;2023-04-26T00:02:45;94259.28;;;12.02;100.00
40245;BME280;25963;42.694;23.600;2023-04-26T00:05:11;94263.88;;;12.12;100.00
40245;BME280;25963;42.694;23.600;2023-04-26T00:07:38;94266.22;;;12.08;100.00
40245;BME280;25963;42.694;23.600;2023-04-26T00:10:05;94262.47;;;12.04;100.00
40245;BME280;25963;42.694;23.600;2023-04-26T00:12:31;94257.19;;;12.04;100.00
40245;BME280;25963;42.694;23.600;2023-04-26T00:14:56;94236.69;;;11.90;100.00
40245;BME280;25963;42.694;23.600;2023-04-26T00:17:23;94237.06;;;11.81;100.00
40245;BME280;25963;42.694;23.600;2023-04-26T00:19:49;94225.72;;;11.81;99.48
40245;BME280;25963;42.694;23.600;2023-04-26T00:22:15;94230.13;;;11.75;98.84
40245;BME280;25963;42.694;23.600;2023-04-26T00:24:40;94215.75;;;11.66;98.43
40245;BME280;25963;42.694;23.600;2023-04-26T00:27:06;94207.81;;;11.61;98.02
40245;BME280;25963;42.694;23.600;2023-04-26T00:29:35;94237.22;;;11.70;97.88
40245;BME280;25963;42.694;23.600;2023-04-26T00:32:00;94225.13;;;11.52;97.55
40245;BME280;25963;42.694;23.600;2023-04-26T00:34:39;94213.06;;;11.39;96.33
40245;BME280;25963;42.694;23.600;2023-04-26T00:37:05;94214.03;;;11.33;95.54
40245;BME280;25963;42.694;23.600;2023-04-26T00:39:30;94211.69;;;11.14;95.68
40245;BME280;25963;42.694;23.600;2023-04-26T00:41:56;94225.28;;;11.23;96.35
40245;BME280;25963;42.694;23.600;2023-04-26T00:44:22;94231.94;;;11.09;97.36
40245;BME280;25963;42.694;23.600;2023-04-26T00:46:48;94231.31;;;11.02;98.00
40245;BME280;25963;42.694;23.600;2023-04-26T00:49:19;94207.50;;;10.80;98.57
40245;BME280;25963;42.694;23.600;2023-04-26T00:51:47;94205.59;;;10.75;98.93
40245;BME280;25963;42.694;23.600;2023-04-26T00:54:13;94233.75;;;10.86;98.57
40245;BME280;25963;42.694;23.600;2023-04-26T00:56:41;94204.09;;;10.62;98.15
40245;BME280;25963;42.694;23.600;2023-04-26T00:59:06;94212.72;;;10.58;98.88
40245;BME280;25963;42.694;23.600;2023-04-26T01:01:33;94207.31;;;10.47;98.62
40245;BME280;25963;42.694;23.600;2023-04-26T01:03:59;94217.84;;;10.47;99.32
40245;BME280;25963;42.694;23.600;2023-04-26T01:06:29;94217.81;;;10.31;100.00
40245;BME280;25963;42.694;23.600;2023-04-26T01:08:58;94213.47;;;10.24;99.17
40245;BME280;25963;42.694;23.600;2023-04-26T01:11:24;94232.38;;;10.33;98.96
40245;BME280;25963;42.694;23.600;2023-04-26T01:13:51;94228.22;;;10.37;98.29
40245;BME280;25963;42.694;23.600;2023-04-26T01:16:18;94231.88;;;10.36;98.21
40245;BME280;25963;42.694;23.600;2023-04-26T01:18:50;94234.25;;;10.21;97.62
40245;BME280;25963;42.694;23.600;2023-04-26T01:21:20;94208.56;;;9.99;98.08
40245;BME280;25963;42.694;23.600;2023-04-26T01:23:46;94233.75;;;9.78;99.28
40245;BME280;25963;42.694;23.600;2023-04-26T01:26:12;94235.91;;;9.81;99.03
40245;BME280;25963;42.694;23.600;2023-04-26T01:28:37;94235.03;;;9.93;98.89
40245;BME280;25963;42.694;23.600;2023-04-26T01:31:03;94214.47;;;9.78;98.55
40245;BME280;25963;42.694;23.600;2023-04-26T01:33:28;94228.22;;;9.80;98.22
40245;BME280;25963;42.694;23.600;2023-04-26T01:35:53;94212.00;;;9.71;98.40
40245;BME280;25963;42.694;23.600;2023-04-26T01:38:19;94221.38;;;9.79;97.96
40245;BME280;25963;42.694;23.600;2023-04-26T01:40:44;94212.03;;;9.59;99.47
40245;BME280;25963;42.694;23.600;2023-04-26T01:43:10;94209.50;;;9.65;99.20
40245;BME280;25963;42.694;23.600;2023-04-26T01:45:36;94211.09;;;9.66;99.34
40245;BME280;25963;42.694;23.600;2023-04-26T01:48:01;94209.19;;;9.61;99.08
40245;BME280;25963;42.694;23.600;2023-04-26T01:50:27;94208.16;;;9.50;98.78
40245;BME280;25963;42.694;23.600;2023-04-26T01:52:52;94205.44;;;9.45;98.99
40245;BME280;25963;42.694;23.600;2023-04-26T01:55:17;94191.50;;;9.33;99.59
40245;BME280;25963;42.694;23.600;2023-04-26T01:57:43;94214.84;;;9.41;100.00
40245;BME280;25963;42.694;23.600;2023-04-26T02:00:09;94214.25;;;9.39;100.00
40245;BME280;25963;42.694;23.600;2023-04-26T02:02:35;94207.75;;;9.30;100.00
40245;BME280;25963;42.694;23.600;2023-04-26T02:05:01;94217.16;;;9.26;100.00
40245;BME280;25963;42.694;23.600;2023-04-26T02:07:26;94212.22;;;9.29;100.00
40245;BME280;25963;42.694;23.600;2023-04-26T02:09:52;94218.75;;;9.27;100.00
40245;BME280;25963;42.694;23.600;2023-04-26T02:12:17;94217.75;;;9.28;100.00
40245;BME280;25963;42.694;23.600;2023-04-26T02:14:46;94233.63;;;9.33;100.00
40245;BME280;25963;42.694;23.600;2023-04-26T02:17:12;94209.47;;;9.24;100.00
40245;BME280;25963;42.694;23.600;2023-04-26T02:19:38;94213.38;;;9.33;100.00
40245;BME280;25963;42.694;23.600;2023-04-26T02:22:04;94212.56;;;9.33;100.00
40245;BME280;25963;42.694;23.600;2023-04-26T02:24:30;94196.84;;;9.09;100.00
40245;BME280;25963;42.694;23.600;2023-04-26T02:26:56;94195.09;;;9.15;100.00
40245;BME280;25963;42.694;23.600;2023-04-26T02:29:25;94191.31;;;9.23;100.00
40245;BME280;25963;42.694;23.600;2023-04-26T02:31:50;94191.06;;;9.24;100.00
40245;BME280;25963;42.694;23.600;2023-04-26T02:34:16;94196.78;;;9.21;100.00
40245;BME280;25963;42.694;23.600;2023-04-26T02:36:41;94203.09;;;9.20;100.00
40245;BME280;25963;42.694;23.600;2023-04-26T02:39:07;94215.81;;;9.11;100.00
40245;BME280;25963;42.694;23.600;2023-04-26T02:41:33;94229.41;;;9.20;100.00
40245;BME280;25963;42.694;23.600;2023-04-26T02:43:58;94193.97;;;9.11;100.00
40245;BME280;25963;42.694;23.600;2023-04-26T02:46:24;94203.66;;;9.22;100.00
40245;BME280;25963;42.694;23.600;2023-04-26T02:48:49;94222.16;;;9.39;100.00
40245;BME280;25963;42.694;23.600;2023-04-26T02:51:15;94207.28;;;9.33;100.00
40245;BME280;25963;42.694;23.600;2023-04-26T02:53:40;94224.78;;;9.39;100.00
40245;BME280;25963;42.694;23.600;2023-04-26T02:56:06;94233.03;;;9.43;100.00
40245;BME280;25963;42.694;23.600;2023-04-26T02:58:31;94225.38;;;9.29;100.00
40245;BME280;25963;42.694;23.600;2023-04-26T03:00:57;94196.09;;;9.26;100.00
40245;BME280;25963;42.694;23.600;2023-04-26T03:03:24;94206.38;;;9.39;100.00
40245;BME280;25963;42.694;23.600;2023-04-26T03:05:49;94190.09;;;9.42;100.00
40245;BME280;25963;42.694;23.600;2023-04-26T03:08:15;94204.63;;;9.45;100.00
40245;BME280;25963;42.694;23.600;2023-04-26T03:10:40;94178.91;;;9.35;100.00
40245;BME280;25963;42.694;23.600;2023-04-26T03:13:06;94193.09;;;9.46;100.00
40245;BME280;25963;42.694;23.600;2023-04-26T03:15:31;94165.69;;;9.18;100.00
40245;BME280;25963;42.694;23.600;2023-04-26T03:17:57;94176.91;;;9.13;100.00
40245;BME280;25963;42.694;23.600;2023-04-26T03:20:26;94179.72;;;8.83;100.00
40245;BME280;25963;42.694;23.600;2023-04-26T03:22:51;94188.97;;;8.74;100.00
40245;BME280;25963;42.694;23.600;2023-04-26T03:25:17;94188.25;;;8.90;100.00
40245;BME280;25963;42.694;23.600;2023-04-26T03:27:42;94178.19;;;8.99;100.00
40245;BME280;25963;42.694;23.600;2023-04-26T03:30:08;94181.53;;;8.83;100.00
40245;BME280;25963;42.694;23.600;2023-04-26T03:32:33;94168.28;;;8.78;100.00
40245;BME280;25963;42.694;23.600;2023-04-26T03:34:59;94183.69;;;9.09;100.00
40245;BME280;25963;42.694;23.600;2023-04-26T03:37:24;94177.03;;;9.07;100.00
40245;BME280;25963;42.694;23.600;2023-04-26T03:39:50;94198.16;;;9.24;100.00
40245;BME280;25963;42.694;23.600;2023-04-26T03:42:18;94175.09;;;9.02;100.00
40245;BME280;25963;42.694;23.600;2023-04-26T03:44:43;94158.66;;;8.95;100.00
40245;BME280;25963;42.694;23.600;2023-04-26T03:47:09;94195.19;;;9.32;100.00
40245;BME280;25963;42.694;23.600;2023-04-26T03:49:34;94197.63;;;9.50;100.00
40245;BME280;25963;42.694;23.600;2023-04-26T03:52:00;94163.13;;;9.35;100.00
40245;BME280;25963;42.694;23.600;2023-04-26T03:54:25;94178.41;;;9.50;100.00
40245;BME280;25963;42.694;23.600;2023-04-26T03:56:51;94193.75;;;9.81;100.00
40245;BME280;25963;42.694;23.600;2023-04-26T03:59:16;94190.50;;;9.91;100.00
40245;BME280;25963;42.694;23.600;2023-04-26T04:01:42;94191.63;;;9.95;100.00
40245;BME280;25963;42.694;23.600;2023-04-26T04:04:07;94181.09;;;9.95;100.00
40245;BME280;25963;42.694;23.600;2023-04-26T04:06:34;94196.69;;;10.14;100.00
40245;BME280;25963;42.694;23.600;2023-04-26T04:08:59;94211.63;;;10.25;100.00
40245;BME280;25963;42.694;23.600;2023-04-26T04:11:24;94208.38;;;10.35;100.00
40245;BME280;25963;42.694;23.600;2023-04-26T04:13:50;94214.31;;;10.42;100.00
40245;BME280;25963;42.694;23.600;2023-04-26T04:16:15;94226.16;;;10.56;100.00
40245;BME280;25963;42.694;23.600;2023-04-26T04:18:42;94219.28;;;10.72;100.00
40245;BME280;25963;42.694;23.600;2023-04-26T04:21:07;94194.50;;;10.73;100.00
40245;BME280;25963;42.694;23.600;2023-04-26T04:23:33;94230.69;;;10.94;100.00
40245;BME280;25963;42.694;23.600;2023-04-26T04:25:58;94206.63;;;10.91;100.00
40245;BME280;25963;42.694;23.600;2023-04-26T04:28:24;94240.00;;;11.19;100.00
40245;BME280;25963;42.694;23.600;2023-04-26T04:30:49;94230.00;;;11.21;100.00
40245;BME280;25963;42.694;23.600;2023-04-26T04:33:14;94255.63;;;11.42;100.00
40245;BME280;25963;42.694;23.600;2023-04-26T04:35:41;94219.50;;;11.26;100.00
40245;BME280;25963;42.694;23.600;2023-04-26T04:38:07;94219.13;;;11.39;100.00
40245;BME280;25963;42.694;23.600;2023-04-26T04:40:33;94228.72;;;11.46;100.00
40245;BME280;25963;42.694;23.600;2023-04-26T04:42:58;94214.00;;;11.50;100.00
40245;BME280;25963;42.694;23.600;2023-04-26T04:45:25;94225.81;;;11.64;100.00
40245;BME280;25963;42.694;23.600;2023-04-26T04:47:51;94239.97;;;12.02;100.00
40245;BME280;25963;42.694;23.600;2023-04-26T04:50:19;94242.69;;;12.07;100.00
40245;BME280;25963;42.694;23.600;2023-04-26T04:52:45;94230.09;;;12.19;100.00
40245;BME280;25963;42.694;23.600;2023-04-26T04:55:11;94249.44;;;12.52;100.00
40245;BME280;25963;42.694;23.600;2023-04-26T04:57:37;94260.47;;;12.39;98.29
40245;BME280;25963;42.694;23.600;2023-04-26T05:00:03;94243.94;;;12.59;98.27
40245;BME280;25963;42.694;23.600;2023-04-26T05:02:35;94231.63;;;12.69;98.40
40245;BME280;25963;42.694;23.600;2023-04-26T05:05:02;94240.44;;;12.48;96.89
40245;BME280;25963;42.694;23.600;2023-04-26T05:07:29;94242.88;;;12.54;98.54
40245;BME280;25963;42.694;23.600;2023-04-26T05:09:55;94251.88;;;12.59;99.47
40245;BME280;25963;42.694;23.600;2023-04-26T05:12:21;94239.16;;;12.55;99.78
40245;BME280;25963;42.694;23.600;2023-04-26T05:14:46;94262.31;;;12.70;99.26
40245;BME280;25963;42.694;23.600;2023-04-26T05:17:12;94235.28;;;12.68;99.51
40245;BME280;25963;42.694;23.600;2023-04-26T05:19:38;94251.66;;;12.65;99.02
40245;BME280;25963;42.694;23.600;2023-04-26T05:22:03;94241.97;;;12.76;98.55
40245;BME280;25963;42.694;23.600;2023-04-26T05:24:29;94254.88;;;12.99;98.93
40245;BME280;25963;42.694;23.600;2023-04-26T05:26:57;94252.44;;;12.61;98.88
40245;BME280;25963;42.694;23.600;2023-04-26T05:29:23;94250.75;;;12.82;99.67
40245;BME280;25963;42.694;23.600;2023-04-26T05:31:48;94276.31;;;13.03;98.25
40245;BME280;25963;42.694;23.600;2023-04-26T05:34:14;94271.75;;;13.26;99.46
40245;BME280;25963;42.694;23.600;2023-04-26T05:36:40;94252.78;;;13.01;95.82
40245;BME280;25963;42.694;23.600;2023-04-26T05:39:05;94267.06;;;13.43;95.20
40245;BME280;25963;42.694;23.600;2023-04-26T05:41:32;94273.97;;;13.44;93.52
40245;BME280;25963;42.694;23.600;2023-04-26T05:43:57;94280.28;;;13.85;93.37
40245;BME280;25963;42.694;23.600;2023-04-26T05:46:23;94254.00;;;13.79;91.58
40245;BME280;25963;42.694;23.600;2023-04-26T05:48:48;94273.75;;;14.13;92.92
40245;BME280;25963;42.694;23.600;2023-04-26T05:51:14;94269.03;;;14.31;87.20
40245;BME280;25963;42.694;23.600;2023-04-26T05:53:40;94281.31;;;14.68;88.60
40245;BME280;25963;42.694;23.600;2023-04-26T05:56:06;94257.69;;;14.56;85.85
40245;BME280;25963;42.694;23.600;2023-04-26T05:58:31;94279.47;;;14.73;85.00
40245;BME280;25963;42.694;23.600;2023-04-26T06:00:58;94276.81;;;14.89;82.12
40245;BME280;25963;42.694;23.600;2023-04-26T06:03:23;94288.72;;;15.42;86.79
40245;BME280;25963;42.694;23.600;2023-04-26T06:05:49;94270.91;;;15.43;79.07
40245;BME280;25963;42.694;23.600;2023-04-26T06:08:14;94270.16;;;15.32;79.74
40245;BME280;25963;42.694;23.600;2023-04-26T06:10:40;94264.06;;;15.26;79.06
40245;BME280;25963;42.694;23.600;2023-04-26T06:13:06;94256.56;;;15.49;77.73
40245;BME280;25963;42.694;23.600;2023-04-26T06:15:31;94257.59;;;15.63;79.38
40245;BME280;25963;42.694;23.600;2023-04-26T06:17:58;94271.94;;;15.78;75.08
40245;BME280;25963;42.694;23.600;2023-04-26T06:20:24;94280.03;;;16.12;80.68
40245;BME280;25963;42.694;23.600;2023-04-26T06:22:49;94281.13;;;16.11;75.07
40245;BME280;25963;42.694;23.600;2023-04-26T06:25:15;94279.56;;;16.00;78.07
40245;BME280;25963;42.694;23.600;2023-04-26T06:27:41;94276.97;;;15.84;78.83
40245;BME280;25963;42.694;23.600;2023-04-26T06:30:07;94245.09;;;15.64;78.16
40245;BME280;25963;42.694;23.600;2023-04-26T06:32:33;94265.59;;;15.53;79.03
40245;BME280;25963;42.694;23.600;2023-04-26T06:34:58;94265.84;;;15.72;77.48
40245;BME280;25963;42.694;23.600;2023-04-26T06:37:24;94264.97;;;15.92;79.16
40245;BME280;25963;42.694;23.600;2023-04-26T06:39:49;94262.09;;;15.83;79.36
40245;BME280;25963;42.694;23.600;2023-04-26T06:42:15;94247.19;;;16.37;78.78
40245;BME280;25963;42.694;23.600;2023-04-26T06:44:40;94263.88;;;17.26;79.78
40245;BME280;25963;42.694;23.600;2023-04-26T06:47:06;94258.97;;;17.39;75.77
40245;BME280;25963;42.694;23.600;2023-04-26T06:49:34;94266.53;;;17.26;74.95
40245;BME280;25963;42.694;23.600;2023-04-26T06:52:00;94249.41;;;17.86;73.12
40245;BME280;25963;42.694;23.600;2023-04-26T06:54:29;94265.81;;;17.98;65.19
40245;BME280;25963;42.694;23.600;2023-04-26T06:56:55;94255.38;;;18.20;66.95
40245;BME280;25963;42.694;23.600;2023-04-26T06:59:20;94236.78;;;18.53;64.79
40245;BME280;25963;42.694;23.600;2023-04-26T07:01:47;94257.66;;;18.70;63.75
40245;BME280;25963;42.694;23.600;2023-04-26T07:04:12;94243.31;;;18.85;66.80
40245;BME280;25963;42.694;23.600;2023-04-26T07:06:39;94244.16;;;18.61;61.60
40245;BME280;25963;42.694;23.600;2023-04-26T07:09:05;94250.03;;;18.01;64.03
40245;BME280;25963;42.694;23.600;2023-04-26T07:11:31;94260.06;;;17.86;66.90
40245;BME280;25963;42.694;23.600;2023-04-26T07:13:57;94259.53;;;18.32;67.18
40245;BME280;25963;42.694;23.600;2023-04-26T07:16:22;94246.44;;;18.11;63.89
40245;BME280;25963;42.694;23.600;2023-04-26T07:18:48;94256.78;;;17.94;63.01
40245;BME280;25963;42.694;23.600;2023-04-26T07:21:13;94258.50;;;17.85;65.53
40245;BME280;25963;42.694;23.600;2023-04-26T07:23:39;94259.63;;;17.78;68.37
40245;BME280;25963;42.694;23.600;2023-04-26T07:26:05;94252.06;;;17.86;68.75
40245;BME280;25963;42.694;23.600;2023-04-26T07:28:30;94259.41;;;17.99;64.61
40245;BME280;25963;42.694;23.600;2023-04-26T07:30:57;94266.75;;;18.31;64.24
40245;BME280;25963;42.694;23.600;2023-04-26T07:33:23;94255.34;;;18.25;64.64
40245;BME280;25963;42.694;23.600;2023-04-26T07:35:58;94258.34;;;17.18;64.10
40245;BME280;25963;42.694;23.600;2023-04-26T07:38:26;94263.16;;;17.45;64.47
40245;BME280;25963;42.694;23.600;2023-04-26T07:40:51;94256.28;;;17.39;69.83
40245;BME280;25963;42.694;23.600;2023-04-26T07:43:20;94261.63;;;17.39;71.00
40245;BME280;25963;42.694;23.600;2023-04-26T07:45:46;94258.13;;;17.67;65.16
40245;BME280;25963;42.694;23.600;2023-04-26T07:48:11;94257.78;;;17.74;67.43
40245;BME280;25963;42.694;23.600;2023-04-26T07:50:37;94256.59;;;17.85;66.84
40245;BME280;25963;42.694;23.600;2023-04-26T07:53:02;94250.31;;;17.47;69.43
40245;BME280;25963;42.694;23.600;2023-04-26T07:55:28;94247.94;;;17.98;64.86
40245;BME280;25963;42.694;23.600;2023-04-26T07:57:53;94256.84;;;17.89;63.51
40245;BME280;25963;42.694;23.600;2023-04-26T08:00:19;94254.84;;;17.75;61.89
40245;BME280;25963;42.694;23.600;2023-04-26T08:02:46;94258.06;;;18.39;61.63
40245;BME280;25963;42.694;23.600;2023-04-26T08:05:12;94258.56;;;18.60;62.72
40245;BME280;25963;42.694;23.600;2023-04-26T08:07:38;94251.13;;;18.57;60.03
40245;BME280;25963;42.694;23.600;2023-04-26T08:10:04;94262.47;;;18.30;59.66
40245;BME280;25963;42.694;23.600;2023-04-26T08:12:30;94263.06;;;18.46;60.72
40245;BME280;25963;42.694;23.600;2023-04-26T08:14:58;94269.78;;;18.81;60.01
40245;BME280;25963;42.694;23.600;2023-04-26T08:17:24;94259.63;;;19.16;61.31
40245;BME280;25963;42.694;23.600;2023-04-26T08:19:49;94259.06;;;19.66;70.40
40245;BME280;25963;42.694;23.600;2023-04-26T08:22:15;94256.19;;;20.17;60.02
40245;BME280;25963;42.694;23.600;2023-04-26T08:24:40;94251.44;;;19.73;53.52
40245;BME280;25963;42.694;23.600;2023-04-26T08:27:06;94246.88;;;19.73;57.72
40245;BME280;25963;42.694;23.600;2023-04-26T08:29:31;94251.84;;;19.94;55.73
40245;BME280;25963;42.694;23.600;2023-04-26T08:31:57;94253.28;;;19.58;58.90
40245;BME280;25963;42.694;23.600;2023-04-26T08:34:22;94242.47;;;19.50;50.24
40245;BME280;25963;42.694;23.600;2023-04-26T08:36:48;94248.44;;;20.16;58.26
40245;BME280;25963;42.694;23.600;2023-04-26T08:39:13;94217.59;;;20.18;51.23
40245;BME280;25963;42.694;23.600;2023-04-26T08:41:43;94255.38;;;19.89;50.93
40245;BME280;25963;42.694;23.600;2023-04-26T08:44:09;94249.50;;;20.42;53.15
40245;BME280;25963;42.694;23.600;2023-04-26T08:47:17;94258.53;;;20.33;49.51
40245;BME280;25963;42.694;23.600;2023-04-26T08:49:50;94249.34;;;20.75;51.64
40245;BME280;25963;42.694;23.600;2023-04-26T08:52:22;94231.38;;;20.25;47.85
40245;BME280;25963;42.694;23.600;2023-04-26T08:54:49;94254.66;;;20.25;51.54
40245;BME280;25963;42.694;23.600;2023-04-26T08:57:16;94249.81;;;20.27;49.47
40245;BME280;25963;42.694;23.600;2023-04-26T08:59:42;94243.00;;;20.71;53.22
40245;BME280;25963;42.694;23.600;2023-04-26T09:02:16;94237.81;;;20.74;52.20
40245;BME280;25963;42.694;23.600;2023-04-26T09:04:43;94246.94;;;20.37;50.72
40245;BME280;25963;42.694;23.600;2023-04-26T09:07:11;94262.13;;;20.14;50.32
40245;BME280;25963;42.694;23.600;2023-04-26T09:09:47;94255.09;;;20.18;51.89
40245;BME280;25963;42.694;23.600;2023-04-26T09:12:17;94255.56;;;19.65;48.48
40245;BME280;25963;42.694;23.600;2023-04-26T09:14:43;94262.13;;;19.73;51.08
40245;BME280;25963;42.694;23.600;2023-04-26T09:37:10;94267.59;;;17.25;58.20
40245;BME280;25963;42.694;23.600;2023-04-26T09:39:40;94253.84;;;17.13;55.94
40245;BME280;25963;42.694;23.600;2023-04-26T09:42:07;94269.09;;;17.37;58.62
40245;BME280;25963;42.694;23.600;2023-04-26T09:44:34;94254.63;;;17.14;57.76
40245;BME280;25963;42.694;23.600;2023-04-26T09:47:07;94260.44;;;16.86;58.77
40245;BME280;25963;42.694;23.600;2023-04-26T09:49:45;94252.22;;;17.17;63.18
40245;BME280;25963;42.694;23.600;2023-04-26T09:52:11;94252.00;;;16.79;58.80
40245;BME280;25963;42.694;23.600;2023-04-26T09:54:52;94242.63;;;17.16;60.58
40245;BME280;25963;42.694;23.600;2023-04-26T09:57:19;94257.34;;;17.38;59.22
40245;BME280;25963;42.694;23.600;2023-04-26T09:59:50;94248.78;;;17.41;55.71
40245;BME280;25963;42.694;23.600;2023-04-26T10:02:19;94251.78;;;17.87;61.20
40245;BME280;25963;42.694;23.600;2023-04-26T10:04:48;94250.53;;;17.79;57.65
40245;BME280;25963;42.694;23.600;2023-04-26T10:07:15;94253.34;;;17.64;55.19
40245;BME280;25963;42.694;23.600;2023-04-26T10:09:41;94252.81;;;17.09;58.14
40245;BME280;25963;42.694;23.600;2023-04-26T10:12:11;94227.09;;;16.94;58.97
40245;BME280;25963;42.694;23.600;2023-04-26T10:14:37;94242.78;;;16.61;59.65
40245;BME280;25963;42.694;23.600;2023-04-26T10:17:03;94241.63;;;16.33;59.93
40245;BME280;25963;42.694;23.600;2023-04-26T10:19:31;94245.66;;;16.26;65.95
40245;BME280;25963;42.694;23.600;2023-04-26T10:22:03;94249.25;;;16.45;63.24
40245;BME280;25963;42.694;23.600;2023-04-26T10:24:29;94254.09;;;16.38;61.64
40245;BME280;25963;42.694;23.600;2023-04-26T10:26:55;94257.88;;;16.71;63.60
40245;BME280;25963;42.694;23.600;2023-04-26T10:32:20;94255.94;;;16.42;60.36
40245;BME280;25963;42.694;23.600;2023-04-26T10:35:08;94257.31;;;16.74;61.15
40245;BME280;25963;42.694;23.600;2023-04-26T10:37:35;94251.13;;;16.44;60.51
40245;BME280;25963;42.694;23.600;2023-04-26T10:40:22;94247.47;;;16.75;61.78
40245;BME280;25963;42.694;23.600;2023-04-26T10:42:48;94239.66;;;16.88;58.87
40245;BME280;25963;42.694;23.600;2023-04-26T10:45:28;94243.44;;;16.82;60.40
40245;BME280;25963;42.694;23.600;2023-04-26T10:48:18;94245.88;;;17.08;59.99
40245;BME280;25963;42.694;23.600;2023-04-26T11:01:34;94240.94;;;16.57;51.20
40245;BME280;25963;42.694;23.600;2023-04-26T11:04:06;94241.09;;;16.71;54.31
40245;BME280;25963;42.694;23.600;2023-04-26T11:06:50;94242.47;;;16.24;54.35
40245;BME280;25963;42.694;23.600;2023-04-26T11:09:38;94235.44;;;15.93;56.08
40245;BME280;25963;42.694;23.600;2023-04-26T11:12:15;94240.22;;;15.96;56.29
40245;BME280;25963;42.694;23.600;2023-04-26T11:14:43;94240.13;;;16.12;59.58
40245;BME280;25963;42.694;23.600;2023-04-26T11:17:11;94227.53;;;15.78;57.16
40245;BME280;25963;42.694;23.600;2023-04-26T11:19:37;94242.88;;;15.96;59.71
40245;BME280;25963;42.694;23.600;2023-04-26T11:22:06;94250.19;;;16.25;62.34
40245;BME280;25963;42.694;23.600;2023-04-26T11:24:33;94256.16;;;16.02;60.08
40245;BME280;25963;42.694;23.600;2023-04-26T11:27:10;94250.84;;;16.02;60.53
40245;BME280;25963;42.694;23.600;2023-04-26T11:29:36;94254.59;;;15.90;56.71
40245;BME280;25963;42.694;23.600;2023-04-26T11:32:01;94246.06;;;15.93;59.09
40245;BME280;25963;42.694;23.600;2023-04-26T11:34:34;94237.47;;;16.17;58.96
40245;BME280;25963;42.694;23.600;2023-04-26T11:37:01;94233.56;;;16.49;59.28
40245;BME280;25963;42.694;23.600;2023-04-26T11:39:27;94240.38;;;16.60;55.79
40245;BME280;25963;42.694;23.600;2023-04-26T11:42:06;94223.25;;;16.76;56.47
40245;BME280;25963;42.694;23.600;2023-04-26T11:44:32;94238.13;;;16.82;54.02
40245;BME280;25963;42.694;23.600;2023-04-26T11:47:00;94247.75;;;16.73;52.07
40245;BME280;25963;42.694;23.600;2023-04-26T11:49:26;94227.59;;;16.62;54.12
40245;BME280;25963;42.694;23.600;2023-04-26T11:51:52;94240.31;;;16.70;52.27
40245;BME280;25963;42.694;23.600;2023-04-26T11:54:34;94239.53;;;17.04;52.73
40245;BME280;25963;42.694;23.600;2023-04-26T11:56:59;94234.41;;;17.42;51.74
40245;BME280;25963;42.694;23.600;2023-04-26T11:59:28;94224.41;;;17.52;50.72
40245;BME280;25963;42.694;23.600;2023-04-26T12:01:57;94238.66;;;17.67;51.35
40245;BME280;25963;42.694;23.600;2023-04-26T12:04:28;94213.91;;;17.61;51.02
40245;BME280;25963;42.694;23.600;2023-04-26T12:06:54;94238.84;;;17.22;49.89
40245;BME280;25963;42.694;23.600;2023-04-26T12:09:26;94208.09;;;17.06;49.11
40245;BME280;25963;42.694;23.600;2023-04-26T12:11:56;94221.09;;;17.13;49.18
40245;BME280;25963;42.694;23.600;2023-04-26T12:17:00;94220.88;;;17.04;48.13
40245;BME280;25963;42.694;23.600;2023-04-26T12:19:27;94208.31;;;17.09;48.97
40245;BME280;25963;42.694;23.600;2023-04-26T12:21:53;94226.44;;;17.37;50.18
40245;BME280;25963;42.694;23.600;2023-04-26T12:24:24;94217.63;;;17.41;50.01
40245;BME280;25963;42.694;23.600;2023-04-26T12:26:50;94221.78;;;17.23;51.34
40245;BME280;25963;42.694;23.600;2023-04-26T12:29:16;94205.06;;;17.42;49.28
40245;BME280;25963;42.694;23.600;2023-04-26T12:31:41;94190.25;;;17.30;49.38
40245;BME280;25963;42.694;23.600;2023-04-26T12:34:07;94218.16;;;17.14;47.91
40245;BME280;25963;42.694;23.600;2023-04-26T12:36:32;94225.94;;;16.76;43.87
40245;BME280;25963;42.694;23.600;2023-04-26T12:39:04;94229.16;;;16.68;45.24
40245;BME280;25963;42.694;23.600;2023-04-26T12:41:33;94224.25;;;16.46;49.00
40245;BME280;25963;42.694;23.600;2023-04-26T12:43:59;94221.19;;;16.63;46.04
40245;BME280;25963;42.694;23.600;2023-04-26T12:46:29;94221.84;;;16.44;47.03
40245;BME280;25963;42.694;23.600;2023-04-26T12:48:55;94220.38;;;16.23;49.31
40245;BME280;25963;42.694;23.600;2023-04-26T12:51:20;94218.28;;;16.20;49.08
40245;BME280;25963;42.694;23.600;2023-04-26T12:53:46;94203.31;;;16.29;51.61
40245;BME280;25963;42.694;23.600;2023-04-26T12:56:11;94195.19;;;16.10;52.94
40245;BME280;25963;42.694;23.600;2023-04-26T12:58:36;94197.31;;;16.08;52.59
40245;BME280;25963;42.694;23.600;2023-04-26T13:01:02;94180.50;;;15.58;52.73
40245;BME280;25963;42.694;23.600;2023-04-26T13:03:27;94212.88;;;15.86;51.64
40245;BME280;25963;42.694;23.600;2023-04-26T13:05:53;94217.13;;;15.87;49.66
40245;BME280;25963;42.694;23.600;2023-04-26T13:08:18;94225.94;;;15.67;51.41
40245;BME280;25963;42.694;23.600;2023-04-26T13:10:44;94173.97;;;15.35;51.49
40245;BME280;25963;42.694;23.600;2023-04-26T13:13:09;94217.91;;;15.87;53.78
40245;BME280;25963;42.694;23.600;2023-04-26T13:15:35;94191.91;;;15.64;51.96
40245;BME280;25963;42.694;23.600;2023-04-26T13:18:01;94211.25;;;15.90;51.74
40245;BME280;25963;42.694;23.600;2023-04-26T13:20:26;94223.22;;;15.92;51.86
40245;BME280;25963;42.694;23.600;2023-04-26T13:22:51;94219.25;;;15.85;51.81
40245;BME280;25963;42.694;23.600;2023-04-26T13:25:17;94229.09;;;15.84;52.68